createdAt,value
2022-08-26T00:00:31.415Z,8.49
2022-08-26T00:01:34.751Z,7.83
2022-08-26T00:02:37.984Z,8.18
2022-08-26T00:03:41.803Z,7.75
2022-08-26T00:04:44.964Z,7.80
2022-08-26T00:05:48.259Z,7.56
2022-08-26T00:06:52.401Z,6.70
2022-08-26T00:07:56.728Z,6.48
2022-08-26T00:09:00.328Z,6.35
2022-08-26T00:10:05.151Z,7.46
2022-08-26T00:11:08.855Z,7.08
2022-08-26T00:12:12.285Z,6.96
2022-08-26T00:13:16.130Z,7.05
2022-08-26T00:14:24.194Z,7.58
2022-08-26T00:15:27.403Z,6.62
2022-08-26T00:16:30.952Z,6.80
2022-08-26T00:17:34.272Z,7.35
2022-08-26T00:18:40.844Z,6.89
2022-08-26T00:19:43.930Z,7.53
2022-08-26T00:20:47.362Z,7.12
2022-08-26T00:21:52.267Z,7.66
2022-08-26T00:22:56.650Z,7.28
2022-08-26T00:23:59.680Z,7.87
2022-08-26T00:25:04.227Z,8.28
2022-08-26T00:26:08.486Z,7.66
2022-08-26T00:27:13.525Z,8.74
2022-08-26T00:28:17.140Z,8.51
2022-08-26T00:29:22.338Z,8.72
2022-08-26T00:30:29.797Z,7.82
2022-08-26T00:31:34.102Z,8.37
2022-08-26T00:32:39.302Z,9.25
2022-08-26T00:33:42.801Z,9.22
2022-08-26T00:34:47.807Z,9.56
2022-08-26T00:35:51.535Z,9.29
2022-08-26T00:36:55.190Z,9.41
2022-08-26T00:37:58.938Z,10.06
2022-08-26T00:39:02.027Z,10.94
2022-08-26T00:40:09.172Z,10.29
2022-08-26T00:41:14.193Z,10.69
2022-08-26T00:42:17.395Z,10.03
2022-08-26T00:43:21.661Z,10.11
2022-08-26T00:44:25.542Z,9.55
2022-08-26T00:45:34.733Z,9.39
2022-08-26T00:46:47.617Z,9.39
2022-08-26T00:47:57.132Z,8.41
2022-08-26T00:49:12.217Z,7.59
2022-08-26T00:50:15.256Z,8.01
2022-08-26T00:51:22.231Z,7.21
2022-08-26T00:52:26.568Z,7.60
2022-08-26T00:53:33.308Z,6.60
2022-08-26T00:54:40.109Z,6.18
2022-08-26T00:55:45.113Z,6.27
2022-08-26T00:57:01.059Z,6.54
2022-08-26T00:58:05.838Z,6.10
2022-08-26T00:59:11.553Z,6.89
2022-08-26T01:00:19.003Z,6.13
2022-08-26T01:01:22.963Z,6.74
2022-08-26T01:02:27.098Z,6.48
2022-08-26T01:03:34.572Z,6.83
2022-08-26T01:04:39.640Z,8.35
2022-08-26T01:05:43.480Z,8.51
2022-08-26T01:06:49.069Z,12.09
2022-08-26T01:07:52.527Z,12.23
2022-08-26T01:08:56.145Z,11.49
2022-08-26T01:10:02.958Z,13.15
2022-08-26T01:11:07.972Z,16.48
2022-08-26T01:12:11.882Z,23.39
2022-08-26T01:13:15.167Z,30.30
2022-08-26T01:14:20.864Z,32.28
2022-08-26T01:15:27.553Z,32.14
2022-08-26T01:16:32.784Z,38.35
2022-08-26T01:17:38.148Z,48.18
2022-08-26T01:18:43.479Z,49.24
2022-08-26T01:19:53.009Z,48.51
2022-08-26T01:21:14.939Z,53.44
2022-08-26T01:22:28.172Z,55.29
2022-08-26T01:23:36.511Z,55.91
2022-08-26T01:24:41.234Z,60.39
2022-08-26T01:25:51.238Z,61.60
2022-08-26T01:27:04.591Z,59.66
2022-08-26T01:28:11.275Z,63.34
2022-08-26T01:29:18.351Z,63.03
2022-08-26T01:30:21.799Z,62.26
2022-08-26T01:31:28.183Z,60.66
2022-08-26T01:32:32.892Z,58.62
2022-08-26T01:33:42.263Z,55.51
2022-08-26T01:34:47.203Z,55.06
2022-08-26T01:35:50.951Z,51.04
2022-08-26T01:36:58.394Z,49.73
2022-08-26T01:38:01.714Z,47.71
2022-08-26T01:39:06.035Z,45.45
2022-08-26T01:40:16.808Z,41.92
2022-08-26T01:41:27.492Z,37.36
2022-08-26T01:42:26.944Z,37.38
2022-08-26T01:43:33.875Z,31.87
2022-08-26T01:44:46.684Z,29.86
2022-08-26T01:45:54.104Z,35.82
2022-08-26T01:46:59.085Z,35.73
2022-08-26T01:48:05.874Z,31.32
2022-08-26T01:49:10.386Z,32.22
2022-08-26T01:50:27.557Z,29.47
2022-08-26T01:51:25.795Z,26.57
2022-08-26T01:52:32.182Z,27.91
2022-08-26T01:53:36.196Z,18.38
2022-08-26T01:54:39.602Z,14.51
2022-08-26T01:55:46.779Z,12.46
2022-08-26T01:56:53.275Z,11.04
2022-08-26T01:57:57.178Z,9.63
2022-08-26T01:59:02.994Z,9.14
2022-08-26T02:00:11.491Z,10.39
2022-08-26T02:02:21.212Z,9.13
2022-08-26T02:03:26.345Z,10.53
2022-08-26T02:04:36.069Z,10.88
2022-08-26T02:05:39.340Z,11.31
2022-08-26T02:06:43.865Z,10.26
2022-08-26T02:07:50.168Z,10.37
2022-08-26T02:08:55.900Z,9.72
2022-08-26T02:09:59.050Z,9.13
2022-08-26T02:11:02.148Z,8.47
2022-08-26T02:12:05.932Z,9.61
2022-08-26T02:13:10.478Z,8.61
2022-08-26T02:14:22.992Z,9.07
2022-08-26T02:15:28.088Z,10.17
2022-08-26T02:16:38.136Z,10.50
2022-08-26T02:17:45.322Z,10.03
2022-08-26T02:18:49.965Z,10.34
2022-08-26T02:19:56.168Z,10.19
2022-08-26T02:21:00.232Z,9.33
2022-08-26T02:22:06.503Z,9.23
2022-08-26T02:23:09.840Z,8.24
2022-08-26T02:24:22.071Z,6.98
2022-08-26T02:25:33.373Z,8.47
2022-08-26T02:26:37.204Z,6.56
2022-08-26T02:27:42.090Z,6.17
2022-08-26T02:28:48.893Z,6.23
2022-08-26T02:29:55.546Z,6.17
2022-08-26T02:30:59.119Z,5.95
2022-08-26T02:32:02.698Z,5.33
2022-08-26T02:33:06.648Z,5.24
2022-08-26T02:34:13.613Z,5.69
2022-08-26T02:35:20.621Z,5.48
2022-08-26T02:36:28.585Z,5.59
2022-08-26T02:37:32.530Z,6.73
2022-08-26T02:38:37.427Z,5.02
2022-08-26T02:39:43.116Z,5.87
2022-08-26T02:40:46.435Z,5.18
2022-08-26T02:41:51.332Z,5.98
2022-08-26T02:42:57.013Z,6.30
2022-08-26T02:44:00.445Z,6.50
2022-08-26T02:45:04.414Z,7.39
2022-08-26T02:46:07.912Z,7.59
2022-08-26T02:47:13.938Z,7.76
2022-08-26T02:48:19.115Z,6.88
2022-08-26T02:49:23.141Z,8.21
2022-08-26T02:50:26.786Z,7.36
2022-08-26T02:51:29.861Z,8.41
2022-08-26T02:52:32.821Z,7.80
2022-08-26T02:53:37.193Z,7.44
2022-08-26T02:54:40.298Z,7.29
2022-08-26T02:55:43.456Z,7.99
2022-08-26T02:56:47.130Z,7.54
2022-08-26T02:57:51.845Z,7.57
2022-08-26T02:58:55.651Z,7.08
2022-08-26T03:00:00.252Z,7.36
2022-08-26T03:01:04.901Z,7.25
2022-08-26T03:02:10.005Z,6.41
2022-08-26T03:03:13.604Z,6.18
2022-08-26T03:04:16.995Z,6.33
2022-08-26T03:05:23.970Z,6.99
2022-08-26T03:06:27.782Z,6.61
2022-08-26T03:07:31.119Z,6.26
2022-08-26T03:08:34.208Z,5.89
2022-08-26T03:09:37.200Z,5.20
2022-08-26T03:10:40.406Z,6.23
2022-08-26T03:11:43.591Z,4.78
2022-08-26T03:12:47.304Z,4.65
2022-08-26T03:13:50.941Z,4.94
2022-08-26T03:14:55.648Z,4.83
2022-08-26T03:16:01.358Z,4.81
2022-08-26T03:17:04.947Z,5.11
2022-08-26T03:18:09.249Z,5.09
2022-08-26T03:19:13.633Z,4.78
2022-08-26T03:20:19.442Z,4.92
2022-08-26T03:21:22.641Z,6.33
2022-08-26T03:22:26.309Z,5.01
2022-08-26T03:23:30.757Z,5.57
2022-08-26T03:24:36.490Z,5.37
2022-08-26T03:25:39.592Z,5.04
2022-08-26T03:26:52.479Z,4.50
2022-08-26T03:27:49.120Z,5.10
2022-08-26T03:29:10.606Z,5.59
2022-08-26T03:30:34.182Z,5.92
2022-08-26T03:31:37.441Z,5.29
2022-08-26T03:32:41.509Z,5.51
2022-08-26T03:33:45.204Z,5.90
2022-08-26T03:34:48.751Z,5.08
2022-08-26T03:35:55.127Z,4.73
2022-08-26T03:36:58.329Z,5.61
2022-08-26T03:38:02.711Z,6.09
2022-08-26T03:39:06.531Z,5.95
2022-08-26T03:40:11.009Z,6.00
2022-08-26T03:41:14.970Z,6.34
2022-08-26T03:42:18.379Z,6.62
2022-08-26T03:43:25.669Z,7.79
2022-08-26T03:44:28.991Z,7.69
2022-08-26T03:45:33.286Z,7.45
2022-08-26T03:46:38.285Z,8.30
2022-08-26T03:47:42.580Z,8.79
2022-08-26T03:48:46.082Z,9.07
2022-08-26T03:49:49.371Z,8.46
2022-08-26T03:50:54.737Z,9.09
2022-08-26T03:51:58.960Z,8.38
2022-08-26T03:53:02.782Z,8.98
2022-08-26T03:54:08.238Z,9.26
2022-08-26T03:55:12.510Z,8.63
2022-08-26T03:56:16.307Z,9.16
2022-08-26T03:57:19.883Z,9.27
2022-08-26T03:58:26.014Z,8.85
2022-08-26T03:59:29.321Z,8.36
2022-08-26T04:00:32.550Z,8.51
2022-08-26T04:01:37.523Z,7.59
2022-08-26T04:02:46.169Z,8.37
2022-08-26T04:04:00.613Z,7.88
2022-08-26T04:05:03.380Z,7.62
2022-08-26T04:06:07.574Z,8.44
2022-08-26T04:07:12.433Z,8.66
2022-08-26T04:08:15.584Z,8.98
2022-08-26T04:09:20.279Z,8.96
2022-08-26T04:10:28.939Z,9.56
2022-08-26T04:11:35.316Z,8.86
2022-08-26T04:12:40.503Z,9.59
2022-08-26T04:13:43.489Z,9.54
2022-08-26T04:14:46.802Z,9.63
2022-08-26T04:15:50.073Z,9.46
2022-08-26T04:16:55.450Z,9.84
2022-08-26T04:17:58.660Z,9.60
2022-08-26T04:19:01.663Z,9.99
2022-08-26T04:20:06.507Z,9.62
2022-08-26T04:21:11.511Z,9.46
2022-08-26T04:22:16.793Z,9.40
2022-08-26T04:23:21.777Z,9.49
2022-08-26T04:24:26.349Z,8.76
2022-08-26T04:25:30.969Z,8.22
2022-08-26T04:26:36.717Z,8.29
2022-08-26T04:27:41.756Z,8.51
2022-08-26T04:28:44.950Z,8.29
2022-08-26T04:29:49.832Z,8.02
2022-08-26T04:30:53.095Z,7.63
2022-08-26T04:31:57.185Z,7.83
2022-08-26T04:33:00.295Z,7.73
2022-08-26T04:34:05.329Z,6.70
2022-08-26T04:35:08.810Z,6.67
2022-08-26T04:36:12.398Z,6.44
2022-08-26T04:37:15.932Z,6.42
2022-08-26T04:38:19.434Z,6.47
2022-08-26T04:39:22.511Z,5.93
2022-08-26T04:40:27.090Z,5.77
2022-08-26T04:41:31.662Z,4.92
2022-08-26T04:42:35.329Z,4.54
2022-08-26T04:43:38.441Z,4.81
2022-08-26T04:44:41.566Z,5.09
2022-08-26T04:45:44.692Z,5.08
2022-08-26T04:46:49.226Z,5.46
2022-08-26T04:47:55.682Z,4.82
2022-08-26T04:48:58.812Z,4.57
2022-08-26T04:50:02.108Z,4.67
2022-08-26T04:51:05.810Z,5.00
2022-08-26T04:52:08.903Z,4.99
2022-08-26T04:53:13.129Z,4.65
2022-08-26T04:54:16.271Z,5.17
2022-08-26T04:55:19.601Z,5.65
2022-08-26T04:56:25.392Z,5.31
2022-08-26T04:57:28.591Z,4.52
2022-08-26T04:58:32.461Z,5.36
2022-08-26T04:59:39.132Z,4.96
2022-08-26T05:00:43.749Z,5.22
2022-08-26T05:01:49.489Z,4.90
2022-08-26T05:02:52.613Z,4.40
2022-08-26T05:03:55.756Z,4.03
2022-08-26T05:04:59.058Z,3.99
2022-08-26T05:06:05.239Z,3.74
2022-08-26T05:07:09.042Z,3.82
2022-08-26T05:08:14.560Z,4.22
2022-08-26T05:09:18.917Z,3.89
2022-08-26T05:10:22.803Z,4.04
2022-08-26T05:11:26.929Z,4.16
2022-08-26T05:12:30.929Z,3.84
2022-08-26T05:13:34.975Z,3.79
2022-08-26T05:14:38.152Z,4.09
2022-08-26T05:15:41.239Z,3.84
2022-08-26T05:16:44.650Z,3.64
2022-08-26T05:17:50.440Z,4.05
2022-08-26T05:18:54.306Z,3.67
2022-08-26T05:19:57.865Z,3.65
2022-08-26T05:21:03.755Z,4.06
2022-08-26T05:22:07.467Z,3.76
2022-08-26T05:23:11.499Z,3.74
2022-08-26T05:24:15.110Z,3.32
2022-08-26T05:25:18.147Z,3.49
2022-08-26T05:27:37.300Z,3.38
2022-08-26T05:28:40.658Z,3.22
2022-08-26T05:29:43.722Z,3.49
2022-08-26T05:30:49.201Z,3.03
2022-08-26T05:31:52.829Z,3.21
2022-08-26T05:32:57.811Z,2.81
2022-08-26T05:34:04.039Z,3.25
2022-08-26T05:35:08.822Z,2.93
2022-08-26T05:36:16.898Z,3.41
2022-08-26T05:37:21.590Z,3.30
2022-08-26T05:38:24.685Z,3.18
2022-08-26T05:39:31.756Z,2.49
2022-08-26T05:40:42.540Z,2.86
2022-08-26T05:41:45.933Z,2.86
2022-08-26T05:42:49.277Z,2.37
2022-08-26T05:43:52.863Z,2.33
2022-08-26T05:44:56.383Z,2.46
2022-08-26T05:46:03.006Z,2.39
2022-08-26T05:47:08.000Z,2.67
2022-08-26T05:48:12.206Z,2.27
2022-08-26T05:49:15.994Z,2.63
2022-08-26T05:50:22.884Z,2.18
2022-08-26T05:51:26.864Z,2.54
2022-08-26T05:52:33.469Z,2.45
2022-08-26T05:53:38.178Z,2.08
2022-08-26T05:54:41.791Z,2.41
2022-08-26T05:55:49.907Z,2.27
2022-08-26T05:56:53.256Z,2.50
2022-08-26T05:57:56.954Z,2.74
2022-08-26T05:59:02.003Z,2.36
2022-08-26T06:00:05.831Z,2.10
2022-08-26T06:01:15.016Z,2.24
2022-08-26T06:02:18.270Z,2.63
2022-08-26T06:03:22.554Z,2.84
2022-08-26T06:04:27.525Z,2.04
2022-08-26T06:05:34.226Z,2.67
2022-08-26T06:06:36.647Z,2.28
2022-08-26T06:07:59.732Z,2.15
2022-08-26T06:09:06.502Z,2.28
2022-08-26T06:10:31.575Z,2.49
2022-08-26T06:11:25.395Z,2.80
2022-08-26T06:12:28.506Z,2.43
2022-08-26T06:13:32.313Z,2.66
2022-08-26T06:14:35.515Z,2.00
2022-08-26T06:15:43.941Z,2.26
2022-08-26T06:16:47.553Z,2.24
2022-08-26T06:17:50.520Z,2.56
2022-08-26T06:18:54.015Z,1.98
2022-08-26T06:19:57.656Z,2.16
2022-08-26T06:21:12.025Z,2.31
2022-08-26T06:22:35.196Z,2.25
2022-08-26T06:23:49.966Z,2.18
2022-08-26T06:25:11.311Z,2.24
2022-08-26T06:26:16.717Z,1.96
2022-08-26T06:27:19.877Z,2.19
2022-08-26T06:28:24.074Z,2.17
2022-08-26T06:29:30.515Z,1.91
2022-08-26T06:30:39.992Z,2.22
2022-08-26T06:31:44.670Z,2.32
2022-08-26T06:32:48.402Z,1.93
2022-08-26T06:33:53.184Z,2.34
2022-08-26T06:34:57.576Z,2.77
2022-08-26T06:36:00.918Z,2.24
2022-08-26T06:37:05.423Z,2.80
2022-08-26T06:38:09.732Z,2.52
2022-08-26T06:39:15.313Z,2.44
2022-08-26T06:40:21.778Z,2.31
2022-08-26T06:41:25.223Z,2.52
2022-08-26T06:42:28.701Z,2.38
2022-08-26T06:43:33.524Z,2.07
2022-08-26T06:44:36.606Z,2.29
2022-08-26T06:45:39.901Z,1.98
2022-08-26T06:46:45.122Z,2.16
2022-08-26T06:47:48.086Z,2.36
2022-08-26T06:48:54.037Z,1.60
2022-08-26T06:49:57.302Z,2.12
2022-08-26T06:51:07.199Z,2.49
2022-08-26T06:52:10.678Z,1.88
2022-08-26T06:53:14.042Z,2.54
2022-08-26T06:54:17.827Z,2.55
2022-08-26T06:55:20.922Z,2.54
2022-08-26T06:56:30.784Z,2.04
2022-08-26T06:57:35.563Z,2.39
2022-08-26T06:58:41.599Z,2.28
2022-08-26T06:59:44.820Z,1.68
2022-08-26T07:00:48.006Z,2.30
2022-08-26T07:01:51.710Z,2.42
2022-08-26T07:02:55.156Z,2.34
2022-08-26T07:04:00.447Z,1.88
2022-08-26T07:05:04.566Z,2.02
2022-08-26T07:06:10.450Z,2.03
2022-08-26T07:07:14.902Z,2.68
2022-08-26T07:08:17.902Z,2.02
2022-08-26T07:09:26.350Z,2.22
2022-08-26T07:10:30.913Z,1.99
2022-08-26T07:11:35.243Z,2.19
2022-08-26T07:12:38.522Z,2.37
2022-08-26T07:13:41.616Z,2.33
2022-08-26T07:14:47.417Z,2.05
2022-08-26T07:15:50.941Z,1.83
2022-08-26T07:16:56.195Z,2.53
2022-08-26T07:17:59.107Z,2.19
2022-08-26T07:19:03.366Z,2.30
2022-08-26T07:20:08.805Z,1.84
2022-08-26T07:21:14.735Z,2.22
2022-08-26T07:22:18.222Z,2.18
2022-08-26T07:23:21.356Z,2.08
2022-08-26T07:24:28.404Z,2.26
2022-08-26T07:25:30.578Z,1.84
2022-08-26T07:26:34.085Z,2.16
2022-08-26T07:27:38.354Z,1.71
2022-08-26T07:28:42.865Z,2.26
2022-08-26T07:29:46.713Z,2.48
2022-08-26T07:30:50.149Z,1.96
2022-08-26T07:31:54.546Z,1.64
2022-08-26T07:32:59.718Z,1.93
2022-08-26T07:34:03.626Z,1.78
2022-08-26T07:35:07.490Z,1.90
2022-08-26T07:36:12.294Z,1.87
2022-08-26T07:37:15.644Z,2.08
2022-08-26T07:38:20.789Z,2.08
2022-08-26T07:39:23.963Z,1.99
2022-08-26T07:40:28.812Z,1.83
2022-08-26T07:41:32.080Z,2.02
2022-08-26T07:42:35.308Z,2.00
2022-08-26T07:43:38.605Z,1.72
2022-08-26T07:44:42.885Z,1.66
2022-08-26T07:45:46.132Z,1.80
2022-08-26T07:46:53.106Z,1.93
2022-08-26T07:47:55.626Z,2.02
2022-08-26T07:48:59.313Z,1.77
2022-08-26T07:50:03.154Z,2.04
2022-08-26T07:51:06.508Z,2.16
2022-08-26T07:52:09.646Z,1.54
2022-08-26T07:53:14.880Z,1.65
2022-08-26T07:54:20.840Z,1.63
2022-08-26T07:55:25.887Z,1.81
2022-08-26T07:56:30.525Z,1.59
2022-08-26T07:57:34.195Z,1.58
2022-08-26T07:58:38.223Z,1.65
2022-08-26T07:59:41.330Z,1.89
2022-08-26T08:00:45.033Z,2.12
2022-08-26T08:01:48.278Z,1.68
2022-08-26T08:02:53.614Z,1.66
2022-08-26T08:03:59.816Z,1.76
2022-08-26T08:05:05.746Z,1.56
2022-08-26T08:06:09.831Z,1.86
2022-08-26T08:07:12.975Z,1.87
2022-08-26T08:08:26.329Z,1.68
2022-08-26T08:09:23.111Z,1.85
2022-08-26T08:10:28.220Z,1.47
2022-08-26T08:11:31.862Z,1.64
2022-08-26T08:12:35.096Z,1.85
2022-08-26T08:13:38.641Z,1.44
2022-08-26T08:14:43.874Z,2.12
2022-08-26T08:15:47.308Z,1.69
2022-08-26T08:16:54.636Z,2.01
2022-08-26T08:18:00.620Z,2.01
2022-08-26T08:19:02.726Z,1.79
2022-08-26T08:20:08.325Z,1.66
2022-08-26T08:21:21.709Z,1.80
2022-08-26T08:22:19.938Z,1.48
2022-08-26T08:23:22.679Z,1.60
2022-08-26T08:24:29.187Z,2.01
2022-08-26T08:25:33.807Z,1.78
2022-08-26T08:26:37.015Z,1.67
2022-08-26T08:27:41.290Z,1.73
2022-08-26T08:28:45.700Z,1.83
2022-08-26T08:29:52.582Z,1.78
2022-08-26T08:30:57.262Z,1.89
2022-08-26T08:32:04.384Z,2.19
2022-08-26T08:33:08.859Z,2.01
2022-08-26T08:34:14.471Z,2.14
2022-08-26T08:35:21.448Z,2.16
2022-08-26T08:36:25.884Z,2.22
2022-08-26T08:37:30.882Z,2.11
2022-08-26T08:38:35.030Z,2.08
2022-08-26T08:39:38.385Z,2.07
2022-08-26T08:40:44.653Z,2.15
2022-08-26T08:42:12.574Z,2.11
2022-08-26T08:43:19.329Z,2.32
2022-08-26T08:45:47.216Z,1.93
2022-08-26T08:47:03.959Z,1.85
2022-08-26T08:48:22.299Z,2.26
2022-08-26T08:49:27.925Z,2.01
2022-08-26T08:50:35.926Z,1.96
2022-08-26T08:51:45.357Z,1.87
2022-08-26T08:53:55.131Z,1.95
2022-08-26T08:54:58.317Z,1.95
2022-08-26T08:56:26.346Z,1.92
2022-08-26T08:57:39.075Z,1.84
2022-08-26T08:58:56.904Z,1.84
2022-08-26T09:00:07.255Z,2.22
2022-08-26T09:01:14.029Z,1.93
2022-08-26T09:02:36.060Z,1.80
2022-08-26T09:03:51.624Z,2.08
2022-08-26T09:06:18.189Z,1.87
2022-08-26T09:07:36.564Z,2.08
2022-08-26T09:08:40.860Z,2.14
2022-08-26T09:09:50.929Z,2.13
2022-08-26T09:10:56.776Z,2.52
2022-08-26T09:12:02.873Z,2.47
2022-08-26T09:13:10.988Z,2.20
2022-08-26T09:14:15.527Z,1.97
2022-08-26T09:15:30.552Z,3.17
2022-08-26T09:16:37.832Z,1.89
2022-08-26T09:18:04.502Z,2.20
2022-08-26T09:19:28.954Z,4.03
2022-08-26T09:20:53.937Z,2.13
2022-08-26T09:21:58.447Z,2.22
2022-08-26T09:23:01.797Z,2.16
2022-08-26T09:24:05.885Z,2.31
2022-08-26T09:25:12.190Z,1.94
2022-08-26T09:26:24.750Z,1.84
2022-08-26T09:27:50.383Z,1.98
2022-08-26T09:29:03.000Z,2.31
2022-08-26T09:30:07.416Z,2.11
2022-08-26T09:31:34.171Z,2.11
2022-08-26T09:32:38.984Z,2.50
2022-08-26T09:33:42.808Z,2.85
2022-08-26T09:35:01.394Z,1.75
2022-08-26T09:36:25.277Z,1.94
2022-08-26T09:37:38.403Z,2.24
2022-08-26T09:38:43.391Z,1.96
2022-08-26T09:39:48.422Z,2.03
2022-08-26T09:41:01.377Z,2.06
2022-08-26T09:42:21.821Z,2.12
2022-08-26T09:43:27.811Z,2.41
2022-08-26T09:44:37.851Z,1.99
2022-08-26T09:45:50.806Z,2.16
2022-08-26T09:47:01.188Z,1.92
2022-08-26T09:48:07.326Z,1.99
2022-08-26T09:49:29.133Z,2.23
2022-08-26T09:50:54.168Z,2.03
2022-08-26T09:52:16.130Z,2.06
2022-08-26T09:53:28.475Z,2.09
2022-08-26T09:54:30.517Z,2.33
2022-08-26T09:55:39.231Z,2.13
2022-08-26T09:56:45.883Z,2.38
2022-08-26T09:57:56.286Z,2.21
2022-08-26T09:59:01.900Z,2.20
2022-08-26T10:00:08.743Z,2.09
2022-08-26T10:01:18.333Z,2.09
2022-08-26T10:02:35.628Z,2.84
2022-08-26T10:03:45.290Z,2.08
2022-08-26T10:04:55.183Z,2.09
2022-08-26T10:06:15.117Z,2.12
2022-08-26T10:07:42.637Z,2.25
2022-08-26T10:08:49.332Z,2.42
2022-08-26T10:09:56.922Z,2.21
2022-08-26T10:11:07.602Z,2.02
2022-08-26T10:12:20.654Z,2.59
2022-08-26T10:13:30.660Z,2.42
2022-08-26T10:14:51.244Z,2.90
2022-08-26T10:16:02.410Z,2.14
2022-08-26T10:17:09.166Z,2.76
2022-08-26T10:18:15.965Z,2.53
2022-08-26T10:19:25.771Z,2.64
2022-08-26T10:20:40.639Z,2.25
2022-08-26T10:22:05.435Z,2.24
2022-08-26T10:23:18.433Z,2.63
2022-08-26T10:24:35.342Z,2.29
2022-08-26T10:25:53.721Z,2.44
2022-08-26T10:27:08.046Z,2.51
2022-08-26T10:28:32.936Z,2.74
2022-08-26T10:29:41.471Z,2.41
2022-08-26T10:30:51.384Z,2.12
2022-08-26T10:31:58.817Z,2.98
2022-08-26T10:33:11.843Z,3.00
2022-08-26T10:34:16.747Z,2.77
2022-08-26T10:35:20.427Z,2.50
2022-08-26T10:37:10.757Z,2.36
2022-08-26T10:37:55.161Z,2.36
2022-08-26T10:39:03.646Z,2.45
2022-08-26T10:40:19.261Z,2.89
2022-08-26T10:41:25.386Z,2.41
2022-08-26T10:42:38.138Z,2.78
2022-08-26T10:43:44.548Z,2.32
2022-08-26T10:44:51.174Z,2.74
2022-08-26T10:46:00.870Z,2.11
2022-08-26T10:47:07.752Z,2.43
2022-08-26T10:48:14.574Z,2.57
2022-08-26T10:49:17.764Z,2.52
2022-08-26T10:50:24.901Z,2.61
2022-08-26T10:51:36.461Z,2.95
2022-08-26T10:52:52.375Z,2.35
2022-08-26T10:54:20.985Z,2.36
2022-08-26T10:55:27.776Z,2.25
2022-08-26T10:56:47.871Z,2.45
2022-08-26T10:57:57.511Z,3.31
2022-08-26T10:59:13.038Z,2.80
2022-08-26T11:00:43.909Z,2.40
2022-08-26T11:02:03.971Z,2.59
2022-08-26T11:03:21.965Z,2.31
2022-08-26T11:04:34.942Z,2.11
2022-08-26T11:05:38.230Z,2.42
2022-08-26T11:06:45.581Z,2.52
2022-08-26T11:07:53.480Z,2.38
2022-08-26T11:09:06.814Z,2.57
2022-08-26T11:10:19.951Z,2.72
2022-08-26T11:11:44.939Z,2.18
2022-08-26T11:12:59.058Z,2.57
2022-08-26T11:14:08.082Z,2.19
2022-08-26T11:15:25.361Z,2.53
2022-08-26T11:16:49.015Z,2.35
2022-08-26T11:17:56.941Z,2.27
2022-08-26T11:19:00.382Z,1.87
2022-08-26T11:20:08.957Z,2.22
2022-08-26T11:21:50.831Z,2.30
2022-08-26T11:22:55.584Z,2.14
2022-08-26T11:23:58.764Z,2.00
2022-08-26T11:25:12.121Z,2.29
2022-08-26T11:26:20.390Z,1.81
2022-08-26T11:27:38.418Z,1.84
2022-08-26T11:28:49.698Z,2.42
2022-08-26T11:30:05.311Z,2.61
2022-08-26T11:31:11.237Z,2.36
2022-08-26T11:32:36.337Z,2.38
2022-08-26T11:33:57.431Z,2.49
2022-08-26T11:35:06.994Z,2.98
2022-08-26T11:37:17.829Z,2.48
2022-08-26T11:38:24.392Z,2.42
2022-08-26T11:39:38.381Z,2.38
2022-08-26T11:40:42.015Z,1.89
2022-08-26T11:41:52.935Z,2.21
2022-08-26T11:42:59.623Z,2.19
2022-08-26T11:44:04.984Z,2.14
2022-08-26T11:45:23.685Z,2.20
2022-08-26T11:46:31.682Z,2.71
2022-08-26T11:47:37.335Z,2.84
2022-08-26T11:48:43.970Z,2.21
2022-08-26T11:49:47.449Z,2.89
2022-08-26T11:51:00.157Z,2.96
2022-08-26T11:52:12.881Z,2.49
2022-08-26T11:53:18.177Z,2.38
2022-08-26T11:54:35.426Z,2.54
2022-08-26T11:55:30.410Z,2.21
2022-08-26T11:56:35.643Z,1.88
2022-08-26T11:57:48.379Z,2.14
2022-08-26T11:58:54.073Z,2.12
2022-08-26T11:59:58.275Z,2.49
2022-08-26T12:01:06.211Z,2.16
2022-08-26T12:02:14.872Z,2.45
2022-08-26T12:03:24.363Z,2.30
2022-08-26T12:04:34.067Z,2.22
2022-08-26T12:05:43.537Z,2.37
2022-08-26T12:06:50.670Z,2.44
2022-08-26T12:07:54.756Z,5.12
2022-08-26T12:09:02.040Z,7.25
2022-08-26T12:10:06.607Z,10.89
2022-08-26T12:11:22.534Z,9.64
2022-08-26T12:12:35.057Z,11.61
2022-08-26T12:13:38.579Z,10.63
2022-08-26T12:14:42.257Z,11.88
2022-08-26T12:15:55.816Z,12.42
2022-08-26T12:17:14.847Z,10.45
2022-08-26T12:18:29.727Z,9.20
2022-08-26T12:19:32.962Z,9.91
2022-08-26T12:20:48.370Z,5.90
2022-08-26T12:22:04.167Z,4.92
2022-08-26T12:23:07.836Z,4.16
2022-08-26T12:24:15.499Z,5.65
2022-08-26T12:25:23.053Z,5.57
2022-08-26T12:26:33.144Z,4.69
2022-08-26T12:27:44.982Z,5.03
2022-08-26T12:28:53.536Z,6.58
2022-08-26T12:30:09.164Z,6.62
2022-08-26T12:31:20.673Z,5.12
2022-08-26T12:32:24.344Z,4.13
2022-08-26T12:33:28.699Z,3.40
2022-08-26T12:34:32.508Z,2.97
2022-08-26T12:35:40.402Z,2.33
2022-08-26T12:36:48.617Z,2.85
2022-08-26T12:37:53.774Z,2.76
2022-08-26T12:38:59.190Z,3.83
2022-08-26T12:40:25.309Z,5.06
2022-08-26T12:41:41.171Z,4.61
2022-08-26T12:42:44.443Z,4.47
2022-08-26T12:43:47.757Z,4.44
2022-08-26T12:44:59.967Z,4.54
2022-08-26T12:46:04.159Z,3.59
2022-08-26T12:47:32.727Z,3.87
2022-08-26T12:48:33.299Z,3.10
2022-08-26T12:49:39.371Z,3.23
2022-08-26T12:50:46.689Z,2.62
2022-08-26T12:51:50.372Z,2.96
2022-08-26T12:53:00.094Z,2.64
2022-08-26T12:54:05.149Z,3.59
2022-08-26T12:55:28.462Z,3.03
2022-08-26T12:56:38.437Z,3.53
2022-08-26T12:57:41.728Z,2.23
2022-08-26T12:58:47.296Z,2.66
2022-08-26T12:59:50.547Z,2.79
2022-08-26T13:00:59.886Z,2.64
2022-08-26T13:02:03.302Z,2.09
2022-08-26T13:03:37.723Z,2.39
2022-08-26T13:04:43.477Z,3.06
2022-08-26T13:05:46.826Z,3.84
2022-08-26T13:06:53.806Z,3.87
2022-08-26T13:08:15.551Z,3.92
2022-08-26T13:09:22.356Z,4.84
2022-08-26T13:10:37.660Z,4.74
2022-08-26T13:11:44.649Z,4.67
2022-08-26T13:12:47.930Z,3.23
2022-08-26T13:14:00.155Z,2.73
2022-08-26T13:15:06.158Z,2.38
2022-08-26T13:16:09.645Z,2.13
2022-08-26T13:17:12.840Z,2.06
2022-08-26T13:18:16.169Z,2.17
2022-08-26T13:19:22.598Z,2.72
2022-08-26T13:20:27.668Z,3.08
2022-08-26T13:21:37.989Z,2.39
2022-08-26T13:23:44.730Z,2.30
2022-08-26T13:24:48.073Z,2.27
2022-08-26T13:25:51.551Z,1.97
2022-08-26T13:26:55.492Z,1.96
2022-08-26T13:27:58.969Z,2.45
2022-08-26T13:29:02.739Z,2.41
2022-08-26T13:30:07.873Z,1.98
2022-08-26T13:31:13.090Z,1.92
2022-08-26T13:32:17.665Z,1.93
2022-08-26T13:33:22.267Z,1.69
2022-08-26T13:34:25.885Z,1.43
2022-08-26T13:35:29.153Z,1.86
2022-08-26T13:36:33.037Z,2.05
2022-08-26T13:37:36.283Z,2.20
2022-08-26T13:38:39.577Z,2.76
2022-08-26T13:39:42.825Z,2.52
2022-08-26T13:40:47.900Z,2.30
2022-08-26T13:41:52.479Z,2.45
2022-08-26T13:42:55.835Z,2.42
2022-08-26T13:43:59.616Z,2.36
2022-08-26T13:45:04.747Z,2.10
2022-08-26T13:46:08.147Z,1.87
2022-08-26T13:47:11.419Z,2.03
2022-08-26T13:48:15.017Z,1.97
2022-08-26T13:49:18.263Z,2.49
2022-08-26T13:50:21.804Z,2.13
2022-08-26T13:51:25.975Z,2.17
2022-08-26T13:52:30.446Z,1.90
2022-08-26T13:53:34.124Z,2.47
2022-08-26T13:54:37.760Z,2.01
2022-08-26T13:55:42.376Z,2.01
2022-08-26T13:56:45.886Z,2.17
2022-08-26T13:57:49.164Z,1.66
2022-08-26T13:58:52.511Z,2.08
2022-08-26T13:59:58.510Z,1.82
2022-08-26T14:01:02.018Z,1.86
2022-08-26T14:02:05.276Z,2.06
2022-08-26T14:03:13.079Z,1.98
2022-08-26T14:04:14.316Z,1.87
2022-08-26T14:05:17.635Z,2.22
2022-08-26T14:06:22.145Z,2.27
2022-08-26T14:07:25.661Z,2.25
2022-08-26T14:08:29.156Z,4.96
2022-08-26T14:09:35.434Z,2.19
2022-08-26T14:10:37.872Z,2.14
2022-08-26T14:11:54.759Z,2.46
2022-08-26T14:12:46.371Z,2.46
2022-08-26T14:13:49.880Z,2.68
2022-08-26T14:14:53.222Z,1.89
2022-08-26T14:15:58.660Z,1.79
2022-08-26T14:17:02.176Z,1.75
2022-08-26T14:18:08.751Z,1.80
2022-08-26T14:19:12.000Z,1.57
2022-08-26T14:20:25.164Z,1.60
2022-08-26T14:21:31.429Z,1.67
2022-08-26T14:22:37.817Z,1.57
2022-08-26T14:23:41.644Z,1.44
2022-08-26T14:24:44.994Z,1.32
2022-08-26T14:25:48.238Z,1.67
2022-08-26T14:26:51.587Z,1.60
2022-08-26T14:27:55.019Z,1.30
2022-08-26T14:28:59.204Z,2.32
2022-08-26T14:30:02.461Z,1.85
2022-08-26T14:31:06.548Z,1.58
2022-08-26T14:32:25.151Z,1.47
2022-08-26T14:33:31.958Z,1.44
2022-08-26T14:34:35.422Z,1.63
2022-08-26T14:35:39.272Z,1.55
2022-08-26T14:36:42.931Z,1.84
2022-08-26T14:37:46.811Z,1.55
2022-08-26T14:38:50.369Z,1.54
2022-08-26T14:39:53.745Z,1.46
2022-08-26T14:40:57.146Z,1.98
2022-08-26T14:42:00.482Z,1.60
2022-08-26T14:43:06.146Z,1.86
2022-08-26T14:44:12.629Z,1.86
2022-08-26T14:45:18.624Z,1.68
2022-08-26T14:46:22.478Z,1.92
2022-08-26T14:47:25.694Z,1.46
2022-08-26T14:48:28.954Z,1.51
2022-08-26T14:49:32.315Z,2.41
2022-08-26T14:50:35.964Z,1.88
2022-08-26T14:51:40.484Z,2.83
2022-08-26T14:53:02.053Z,2.07
2022-08-26T14:54:14.373Z,1.79
2022-08-26T14:55:17.637Z,1.82